sensor_id;sensor_type;location;lat;lon;timestamp;P1;durP1;ratioP1;P2;durP2;ratioP2
53207;SDS011;39093;52.788;6.940;2023-03-23T00:01:49;13.90;;;8.18;;
53207;SDS011;39093;52.788;6.940;2023-03-23T00:04:18;12.23;;;7.70;;
53207;SDS011;39093;52.788;6.940;2023-03-23T00:06:44;14.52;;;7.85;;
53207;SDS011;39093;52.788;6.940;2023-03-23T00:09:11;13.57;;;6.75;;
53207;SDS011;39093;52.788;6.940;2023-03-23T00:11:40;12.27;;;7.05;;
53207;SDS011;39093;52.788;6.940;2023-03-23T00:14:07;10.38;;;6.63;;
53207;SDS011;39093;52.788;6.940;2023-03-23T00:16:38;9.25;;;7.25;;
53207;SDS011;39093;52.788;6.940;2023-03-23T00:19:09;8.35;;;6.45;;
53207;SDS011;39093;52.788;6.940;2023-03-23T00:21:39;10.73;;;6.15;;
53207;SDS011;39093;52.788;6.940;2023-03-23T00:26:38;12.77;;;6.50;;
53207;SDS011;39093;52.788;6.940;2023-03-23T00:29:06;12.70;;;6.72;;
53207;SDS011;39093;52.788;6.940;2023-03-23T00:31:35;11.80;;;6.43;;
53207;SDS011;39093;52.788;6.940;2023-03-23T00:34:02;12.27;;;6.47;;
53207;SDS011;39093;52.788;6.940;2023-03-23T00:36:30;14.80;;;6.55;;
53207;SDS011;39093;52.788;6.940;2023-03-23T00:38:57;13.18;;;6.55;;
53207;SDS011;39093;52.788;6.940;2023-03-23T00:41:24;12.98;;;6.57;;
53207;SDS011;39093;52.788;6.940;2023-03-23T00:43:57;12.60;;;6.13;;
53207;SDS011;39093;52.788;6.940;2023-03-23T00:46:25;9.63;;;5.67;;
53207;SDS011;39093;52.788;6.940;2023-03-23T00:48:53;13.68;;;6.57;;
53207;SDS011;39093;52.788;6.940;2023-03-23T00:51:20;9.55;;;5.63;;
53207;SDS011;39093;52.788;6.940;2023-03-23T00:53:46;12.40;;;5.70;;
53207;SDS011;39093;52.788;6.940;2023-03-23T00:56:12;8.40;;;5.53;;
53207;SDS011;39093;52.788;6.940;2023-03-23T00:58:39;9.60;;;5.22;;
53207;SDS011;39093;52.788;6.940;2023-03-23T01:01:06;9.30;;;4.75;;
53207;SDS011;39093;52.788;6.940;2023-03-23T01:03:33;9.63;;;5.47;;
53207;SDS011;39093;52.788;6.940;2023-03-23T01:06:18;10.57;;;5.72;;
53207;SDS011;39093;52.788;6.940;2023-03-23T01:08:44;9.32;;;4.82;;
53207;SDS011;39093;52.788;6.940;2023-03-23T01:11:15;11.18;;;5.40;;
53207;SDS011;39093;52.788;6.940;2023-03-23T01:13:44;12.00;;;5.13;;
53207;SDS011;39093;52.788;6.940;2023-03-23T01:16:10;8.25;;;4.65;;
53207;SDS011;39093;52.788;6.940;2023-03-23T01:18:36;9.13;;;4.13;;
53207;SDS011;39093;52.788;6.940;2023-03-23T01:21:03;10.30;;;3.70;;
53207;SDS011;39093;52.788;6.940;2023-03-23T01:23:35;10.82;;;3.83;;
53207;SDS011;39093;52.788;6.940;2023-03-23T01:26:08;10.90;;;3.88;;
53207;SDS011;39093;52.788;6.940;2023-03-23T01:28:36;8.80;;;4.72;;
53207;SDS011;39093;52.788;6.940;2023-03-23T01:31:05;6.10;;;3.80;;
53207;SDS011;39093;52.788;6.940;2023-03-23T01:33:33;7.93;;;4.60;;
53207;SDS011;39093;52.788;6.940;2023-03-23T01:36:03;7.85;;;4.45;;
53207;SDS011;39093;52.788;6.940;2023-03-23T01:38:31;6.60;;;4.07;;
53207;SDS011;39093;52.788;6.940;2023-03-23T01:40:57;8.30;;;4.40;;
53207;SDS011;39093;52.788;6.940;2023-03-23T01:43:23;9.15;;;4.75;;
53207;SDS011;39093;52.788;6.940;2023-03-23T01:45:49;8.18;;;4.75;;
53207;SDS011;39093;52.788;6.940;2023-03-23T01:48:20;7.30;;;4.35;;
53207;SDS011;39093;52.788;6.940;2023-03-23T01:50:57;9.63;;;4.45;;
53207;SDS011;39093;52.788;6.940;2023-03-23T01:53:28;9.10;;;3.80;;
53207;SDS011;39093;52.788;6.940;2023-03-23T01:55:59;7.90;;;4.28;;
53207;SDS011;39093;52.788;6.940;2023-03-23T01:58:27;7.22;;;3.70;;
53207;SDS011;39093;52.788;6.940;2023-03-23T02:00:56;8.50;;;4.30;;
53207;SDS011;39093;52.788;6.940;2023-03-23T02:03:26;7.38;;;4.47;;
53207;SDS011;39093;52.788;6.940;2023-03-23T02:05:54;8.35;;;3.60;;
53207;SDS011;39093;52.788;6.940;2023-03-23T02:08:24;5.43;;;3.50;;
53207;SDS011;39093;52.788;6.940;2023-03-23T02:10:53;6.07;;;3.20;;
53207;SDS011;39093;52.788;6.940;2023-03-23T02:13:19;5.95;;;3.50;;
53207;SDS011;39093;52.788;6.940;2023-03-23T02:15:52;5.70;;;3.03;;
53207;SDS011;39093;52.788;6.940;2023-03-23T02:21:16;7.30;;;3.47;;
53207;SDS011;39093;52.788;6.940;2023-03-23T02:32:31;6.55;;;3.83;;
53207;SDS011;39093;52.788;6.940;2023-03-23T02:35:10;9.65;;;4.07;;
53207;SDS011;39093;52.788;6.940;2023-03-23T02:37:52;10.52;;;4.43;;
53207;SDS011;39093;52.788;6.940;2023-03-23T02:40:24;8.60;;;3.95;;
53207;SDS011;39093;52.788;6.940;2023-03-23T02:42:55;8.20;;;3.97;;
53207;SDS011;39093;52.788;6.940;2023-03-23T02:45:24;5.10;;;3.28;;
53207;SDS011;39093;52.788;6.940;2023-03-23T02:47:53;11.35;;;3.97;;
53207;SDS011;39093;52.788;6.940;2023-03-23T02:50:21;6.95;;;3.92;;
53207;SDS011;39093;52.788;6.940;2023-03-23T02:52:49;8.27;;;4.28;;
53207;SDS011;39093;52.788;6.940;2023-03-23T02:55:17;6.32;;;3.28;;
53207;SDS011;39093;52.788;6.940;2023-03-23T02:57:46;6.65;;;3.30;;
53207;SDS011;39093;52.788;6.940;2023-03-23T03:00:13;9.00;;;3.85;;
53207;SDS011;39093;52.788;6.940;2023-03-23T03:02:48;7.55;;;3.22;;
53207;SDS011;39093;52.788;6.940;2023-03-23T03:05:37;6.65;;;3.50;;
53207;SDS011;39093;52.788;6.940;2023-03-23T03:16:42;5.35;;;3.67;;
53207;SDS011;39093;52.788;6.940;2023-03-23T03:19:13;5.20;;;3.88;;
53207;SDS011;39093;52.788;6.940;2023-03-23T03:21:47;6.18;;;3.38;;
53207;SDS011;39093;52.788;6.940;2023-03-23T03:24:15;5.32;;;3.40;;
53207;SDS011;39093;52.788;6.940;2023-03-23T03:26:48;4.28;;;3.35;;
53207;SDS011;39093;52.788;6.940;2023-03-23T03:29:17;6.60;;;3.15;;
53207;SDS011;39093;52.788;6.940;2023-03-23T03:31:48;7.80;;;3.60;;
53207;SDS011;39093;52.788;6.940;2023-03-23T03:34:16;4.35;;;3.28;;
53207;SDS011;39093;52.788;6.940;2023-03-23T03:36:43;5.55;;;3.13;;
53207;SDS011;39093;52.788;6.940;2023-03-23T03:39:11;5.15;;;3.10;;
53207;SDS011;39093;52.788;6.940;2023-03-23T03:41:40;5.47;;;3.00;;
53207;SDS011;39093;52.788;6.940;2023-03-23T03:44:06;7.25;;;3.65;;
53207;SDS011;39093;52.788;6.940;2023-03-23T03:46:32;6.18;;;3.47;;
53207;SDS011;39093;52.788;6.940;2023-03-23T03:49:02;6.88;;;3.22;;
53207;SDS011;39093;52.788;6.940;2023-03-23T03:51:30;7.45;;;3.28;;
53207;SDS011;39093;52.788;6.940;2023-03-23T03:53:57;5.18;;;2.80;;
53207;SDS011;39093;52.788;6.940;2023-03-23T03:56:23;5.32;;;3.45;;
53207;SDS011;39093;52.788;6.940;2023-03-23T03:58:50;7.57;;;3.13;;
53207;SDS011;39093;52.788;6.940;2023-03-23T04:01:18;6.05;;;3.15;;
53207;SDS011;39093;52.788;6.940;2023-03-23T04:03:49;4.93;;;3.50;;
53207;SDS011;39093;52.788;6.940;2023-03-23T04:06:16;6.60;;;3.30;;
53207;SDS011;39093;52.788;6.940;2023-03-23T04:08:43;6.13;;;3.83;;
53207;SDS011;39093;52.788;6.940;2023-03-23T04:11:11;5.68;;;3.33;;
53207;SDS011;39093;52.788;6.940;2023-03-23T04:13:38;8.20;;;3.22;;
53207;SDS011;39093;52.788;6.940;2023-03-23T04:16:05;7.90;;;3.47;;
53207;SDS011;39093;52.788;6.940;2023-03-23T04:18:31;7.82;;;4.13;;
53207;SDS011;39093;52.788;6.940;2023-03-23T04:20:58;6.45;;;3.35;;
53207;SDS011;39093;52.788;6.940;2023-03-23T04:23:26;5.82;;;3.28;;
53207;SDS011;39093;52.788;6.940;2023-03-23T04:25:55;3.88;;;3.45;;
53207;SDS011;39093;52.788;6.940;2023-03-23T04:28:26;6.95;;;4.00;;
53207;SDS011;39093;52.788;6.940;2023-03-23T04:30:53;7.38;;;3.45;;
53207;SDS011;39093;52.788;6.940;2023-03-23T04:33:21;6.47;;;3.25;;
53207;SDS011;39093;52.788;6.940;2023-03-23T04:35:47;7.25;;;3.53;;
53207;SDS011;39093;52.788;6.940;2023-03-23T04:38:16;9.48;;;3.92;;
53207;SDS011;39093;52.788;6.940;2023-03-23T04:40:45;6.88;;;3.33;;
53207;SDS011;39093;52.788;6.940;2023-03-23T04:43:12;5.68;;;3.50;;
53207;SDS011;39093;52.788;6.940;2023-03-23T04:45:38;5.00;;;3.15;;
53207;SDS011;39093;52.788;6.940;2023-03-23T04:48:07;5.80;;;3.38;;
53207;SDS011;39093;52.788;6.940;2023-03-23T04:50:33;6.00;;;3.55;;
53207;SDS011;39093;52.788;6.940;2023-03-23T04:53:00;9.57;;;4.30;;
53207;SDS011;39093;52.788;6.940;2023-03-23T04:55:33;7.20;;;3.80;;
53207;SDS011;39093;52.788;6.940;2023-03-23T04:58:04;6.20;;;3.58;;
53207;SDS011;39093;52.788;6.940;2023-03-23T05:00:31;8.20;;;3.35;;
53207;SDS011;39093;52.788;6.940;2023-03-23T05:02:58;5.65;;;3.45;;
53207;SDS011;39093;52.788;6.940;2023-03-23T05:05:24;18.08;;;3.55;;
53207;SDS011;39093;52.788;6.940;2023-03-23T05:07:52;6.25;;;3.78;;
53207;SDS011;39093;52.788;6.940;2023-03-23T05:10:18;4.55;;;3.08;;
53207;SDS011;39093;52.788;6.940;2023-03-23T05:12:44;6.60;;;3.33;;
53207;SDS011;39093;52.788;6.940;2023-03-23T05:15:11;7.82;;;3.28;;
53207;SDS011;39093;52.788;6.940;2023-03-23T05:17:38;5.82;;;3.22;;
53207;SDS011;39093;52.788;6.940;2023-03-23T05:20:06;6.97;;;3.30;;
53207;SDS011;39093;52.788;6.940;2023-03-23T05:22:36;8.23;;;3.55;;
53207;SDS011;39093;52.788;6.940;2023-03-23T05:25:03;5.75;;;2.88;;
53207;SDS011;39093;52.788;6.940;2023-03-23T05:27:31;7.57;;;3.33;;
53207;SDS011;39093;52.788;6.940;2023-03-23T05:29:57;14.25;;;3.88;;
53207;SDS011;39093;52.788;6.940;2023-03-23T05:32:25;8.45;;;3.38;;
53207;SDS011;39093;52.788;6.940;2023-03-23T05:34:55;7.15;;;3.60;;
53207;SDS011;39093;52.788;6.940;2023-03-23T05:37:22;9.02;;;3.80;;
53207;SDS011;39093;52.788;6.940;2023-03-23T05:39:48;8.55;;;3.13;;
53207;SDS011;39093;52.788;6.940;2023-03-23T05:42:14;8.95;;;4.47;;
53207;SDS011;39093;52.788;6.940;2023-03-23T05:44:39;8.52;;;3.30;;
53207;SDS011;39093;52.788;6.940;2023-03-23T05:47:06;13.13;;;4.25;;
53207;SDS011;39093;52.788;6.940;2023-03-23T05:49:31;8.07;;;3.78;;
53207;SDS011;39093;52.788;6.940;2023-03-23T05:51:57;8.55;;;3.88;;
53207;SDS011;39093;52.788;6.940;2023-03-23T05:54:23;6.97;;;3.90;;
53207;SDS011;39093;52.788;6.940;2023-03-23T05:56:50;13.07;;;3.97;;
53207;SDS011;39093;52.788;6.940;2023-03-23T05:59:16;11.82;;;3.28;;
53207;SDS011;39093;52.788;6.940;2023-03-23T06:01:42;9.38;;;3.08;;
53207;SDS011;39093;52.788;6.940;2023-03-23T06:04:08;9.63;;;3.55;;
53207;SDS011;39093;52.788;6.940;2023-03-23T06:06:34;14.48;;;3.20;;
53207;SDS011;39093;52.788;6.940;2023-03-23T06:09:00;12.88;;;3.58;;
53207;SDS011;39093;52.788;6.940;2023-03-23T06:11:26;9.27;;;3.35;;
53207;SDS011;39093;52.788;6.940;2023-03-23T06:13:52;8.02;;;2.67;;
53207;SDS011;39093;52.788;6.940;2023-03-23T06:16:18;7.88;;;2.92;;
53207;SDS011;39093;52.788;6.940;2023-03-23T06:18:44;12.38;;;3.22;;
53207;SDS011;39093;52.788;6.940;2023-03-23T06:21:11;7.93;;;3.08;;
53207;SDS011;39093;52.788;6.940;2023-03-23T06:23:38;9.55;;;3.25;;
53207;SDS011;39093;52.788;6.940;2023-03-23T06:26:05;7.82;;;2.80;;
53207;SDS011;39093;52.788;6.940;2023-03-23T06:28:32;9.68;;;3.15;;
53207;SDS011;39093;52.788;6.940;2023-03-23T06:31:03;6.72;;;2.70;;
53207;SDS011;39093;52.788;6.940;2023-03-23T06:33:34;5.88;;;2.20;;
53207;SDS011;39093;52.788;6.940;2023-03-23T06:36:01;12.52;;;3.22;;
53207;SDS011;39093;52.788;6.940;2023-03-23T06:38:27;14.48;;;3.22;;
53207;SDS011;39093;52.788;6.940;2023-03-23T06:40:53;5.63;;;2.60;;
53207;SDS011;39093;52.788;6.940;2023-03-23T06:43:20;13.10;;;3.15;;
53207;SDS011;39093;52.788;6.940;2023-03-23T06:45:46;6.47;;;2.95;;
53207;SDS011;39093;52.788;6.940;2023-03-23T06:48:13;11.48;;;2.83;;
53207;SDS011;39093;52.788;6.940;2023-03-23T06:50:41;8.18;;;2.72;;
53207;SDS011;39093;52.788;6.940;2023-03-23T06:53:11;8.73;;;2.72;;
53207;SDS011;39093;52.788;6.940;2023-03-23T06:55:37;14.43;;;3.38;;
53207;SDS011;39093;52.788;6.940;2023-03-23T06:58:04;17.30;;;3.70;;
53207;SDS011;39093;52.788;6.940;2023-03-23T07:00:31;11.52;;;3.00;;
53207;SDS011;39093;52.788;6.940;2023-03-23T07:02:58;10.98;;;3.15;;
53207;SDS011;39093;52.788;6.940;2023-03-23T07:05:23;14.50;;;3.83;;
53207;SDS011;39093;52.788;6.940;2023-03-23T07:07:50;10.88;;;3.15;;
53207;SDS011;39093;52.788;6.940;2023-03-23T07:10:16;15.48;;;2.88;;
53207;SDS011;39093;52.788;6.940;2023-03-23T07:12:42;14.27;;;3.63;;
53207;SDS011;39093;52.788;6.940;2023-03-23T07:15:08;18.52;;;3.53;;
53207;SDS011;39093;52.788;6.940;2023-03-23T07:17:36;15.90;;;3.50;;
53207;SDS011;39093;52.788;6.940;2023-03-23T07:20:03;13.40;;;3.58;;
53207;SDS011;39093;52.788;6.940;2023-03-23T07:22:30;9.93;;;3.00;;
53207;SDS011;39093;52.788;6.940;2023-03-23T07:24:56;20.83;;;3.80;;
53207;SDS011;39093;52.788;6.940;2023-03-23T07:27:22;10.05;;;3.08;;
53207;SDS011;39093;52.788;6.940;2023-03-23T07:29:48;19.92;;;3.47;;
53207;SDS011;39093;52.788;6.940;2023-03-23T07:32:14;14.60;;;3.85;;
53207;SDS011;39093;52.788;6.940;2023-03-23T07:34:41;14.55;;;3.05;;
53207;SDS011;39093;52.788;6.940;2023-03-23T07:37:07;13.85;;;3.45;;
53207;SDS011;39093;52.788;6.940;2023-03-23T07:39:33;15.50;;;3.58;;
53207;SDS011;39093;52.788;6.940;2023-03-23T07:42:00;17.55;;;4.15;;
53207;SDS011;39093;52.788;6.940;2023-03-23T07:44:26;16.60;;;2.72;;
53207;SDS011;39093;52.788;6.940;2023-03-23T07:46:51;12.98;;;3.03;;
53207;SDS011;39093;52.788;6.940;2023-03-23T07:49:17;11.55;;;3.30;;
53207;SDS011;39093;52.788;6.940;2023-03-23T07:51:44;10.02;;;3.08;;
53207;SDS011;39093;52.788;6.940;2023-03-23T07:54:11;13.70;;;3.40;;
53207;SDS011;39093;52.788;6.940;2023-03-23T07:56:38;14.23;;;3.17;;
53207;SDS011;39093;52.788;6.940;2023-03-23T07:59:08;16.40;;;3.08;;
53207;SDS011;39093;52.788;6.940;2023-03-23T08:01:35;14.88;;;3.58;;
53207;SDS011;39093;52.788;6.940;2023-03-23T08:04:00;15.93;;;3.45;;
53207;SDS011;39093;52.788;6.940;2023-03-23T08:06:26;12.23;;;3.30;;
53207;SDS011;39093;52.788;6.940;2023-03-23T08:08:53;17.25;;;3.65;;
53207;SDS011;39093;52.788;6.940;2023-03-23T08:11:19;18.42;;;4.13;;
53207;SDS011;39093;52.788;6.940;2023-03-23T08:13:45;10.45;;;2.53;;
53207;SDS011;39093;52.788;6.940;2023-03-23T08:16:11;18.42;;;3.88;;
53207;SDS011;39093;52.788;6.940;2023-03-23T08:18:38;17.25;;;3.67;;
53207;SDS011;39093;52.788;6.940;2023-03-23T08:21:05;21.60;;;4.30;;
53207;SDS011;39093;52.788;6.940;2023-03-23T08:23:34;22.55;;;3.95;;
53207;SDS011;39093;52.788;6.940;2023-03-23T08:26:02;20.30;;;3.10;;
53207;SDS011;39093;52.788;6.940;2023-03-23T08:28:29;13.95;;;3.15;;
53207;SDS011;39093;52.788;6.940;2023-03-23T08:30:54;17.60;;;4.82;;
53207;SDS011;39093;52.788;6.940;2023-03-23T08:33:20;23.58;;;5.38;;
53207;SDS011;39093;52.788;6.940;2023-03-23T08:35:53;18.05;;;3.88;;
53207;SDS011;39093;52.788;6.940;2023-03-23T08:38:23;16.55;;;4.35;;
53207;SDS011;39093;52.788;6.940;2023-03-23T08:40:50;15.00;;;3.38;;
53207;SDS011;39093;52.788;6.940;2023-03-23T08:43:16;16.23;;;4.45;;
53207;SDS011;39093;52.788;6.940;2023-03-23T08:45:43;21.60;;;4.03;;
53207;SDS011;39093;52.788;6.940;2023-03-23T08:48:08;18.42;;;3.65;;
53207;SDS011;39093;52.788;6.940;2023-03-23T08:50:36;12.35;;;3.50;;
53207;SDS011;39093;52.788;6.940;2023-03-23T08:53:02;15.05;;;4.05;;
53207;SDS011;39093;52.788;6.940;2023-03-23T08:55:28;14.20;;;4.07;;
53207;SDS011;39093;52.788;6.940;2023-03-23T08:57:54;16.17;;;4.03;;
53207;SDS011;39093;52.788;6.940;2023-03-23T09:00:21;15.48;;;4.22;;
53207;SDS011;39093;52.788;6.940;2023-03-23T09:02:51;13.18;;;3.58;;
53207;SDS011;39093;52.788;6.940;2023-03-23T09:05:19;10.48;;;3.83;;
53207;SDS011;39093;52.788;6.940;2023-03-23T09:07:50;16.52;;;4.00;;
53207;SDS011;39093;52.788;6.940;2023-03-23T09:10:20;15.70;;;4.20;;
53207;SDS011;39093;52.788;6.940;2023-03-23T09:12:47;16.50;;;4.00;;
53207;SDS011;39093;52.788;6.940;2023-03-23T09:15:15;17.58;;;3.45;;
53207;SDS011;39093;52.788;6.940;2023-03-23T09:17:43;21.75;;;4.03;;
53207;SDS011;39093;52.788;6.940;2023-03-23T09:20:11;16.17;;;4.38;;
53207;SDS011;39093;52.788;6.940;2023-03-23T09:22:39;16.17;;;3.58;;
53207;SDS011;39093;52.788;6.940;2023-03-23T09:25:10;17.55;;;3.67;;
53207;SDS011;39093;52.788;6.940;2023-03-23T09:27:38;13.68;;;4.47;;
53207;SDS011;39093;52.788;6.940;2023-03-23T09:30:06;15.10;;;4.63;;
53207;SDS011;39093;52.788;6.940;2023-03-23T09:32:33;22.65;;;5.05;;
53207;SDS011;39093;52.788;6.940;2023-03-23T09:35:03;20.92;;;5.47;;
53207;SDS011;39093;52.788;6.940;2023-03-23T09:37:35;17.55;;;4.45;;
53207;SDS011;39093;52.788;6.940;2023-03-23T09:40:05;18.90;;;4.60;;
53207;SDS011;39093;52.788;6.940;2023-03-23T09:48:51;16.33;;;4.25;;
53207;SDS011;39093;52.788;6.940;2023-03-23T09:56:50;17.25;;;4.50;;
53207;SDS011;39093;52.788;6.940;2023-03-23T10:01:47;11.40;;;3.03;;
53207;SDS011;39093;52.788;6.940;2023-03-23T10:04:36;12.05;;;3.45;;
53207;SDS011;39093;52.788;6.940;2023-03-23T10:07:27;15.55;;;3.88;;
53207;SDS011;39093;52.788;6.940;2023-03-23T10:09:54;19.15;;;2.92;;
53207;SDS011;39093;52.788;6.940;2023-03-23T10:12:30;11.30;;;2.72;;
53207;SDS011;39093;52.788;6.940;2023-03-23T10:15:23;7.93;;;2.25;;
53207;SDS011;39093;52.788;6.940;2023-03-23T10:20:52;10.02;;;2.35;;
53207;SDS011;39093;52.788;6.940;2023-03-23T10:28:54;8.32;;;2.15;;
53207;SDS011;39093;52.788;6.940;2023-03-23T10:31:44;8.50;;;2.60;;
53207;SDS011;39093;52.788;6.940;2023-03-23T10:37:19;10.43;;;2.75;;
53207;SDS011;39093;52.788;6.940;2023-03-23T10:39:55;9.60;;;2.20;;
53207;SDS011;39093;52.788;6.940;2023-03-23T10:42:28;6.53;;;1.85;;
53207;SDS011;39093;52.788;6.940;2023-03-23T10:47:42;10.82;;;2.38;;
53207;SDS011;39093;52.788;6.940;2023-03-23T10:50:17;15.02;;;2.90;;
53207;SDS011;39093;52.788;6.940;2023-03-23T10:52:48;10.18;;;2.20;;
53207;SDS011;39093;52.788;6.940;2023-03-23T10:55:18;8.00;;;2.17;;
53207;SDS011;39093;52.788;6.940;2023-03-23T11:00:44;12.10;;;2.95;;
53207;SDS011;39093;52.788;6.940;2023-03-23T11:05:43;6.75;;;2.03;;
53207;SDS011;39093;52.788;6.940;2023-03-23T11:08:13;9.32;;;2.10;;
53207;SDS011;39093;52.788;6.940;2023-03-23T11:10:59;11.30;;;2.53;;
53207;SDS011;39093;52.788;6.940;2023-03-23T11:13:37;7.18;;;2.22;;
53207;SDS011;39093;52.788;6.940;2023-03-23T11:16:21;6.38;;;2.17;;
53207;SDS011;39093;52.788;6.940;2023-03-23T11:18:52;10.23;;;2.22;;
53207;SDS011;39093;52.788;6.940;2023-03-23T11:21:19;7.97;;;2.03;;
53207;SDS011;39093;52.788;6.940;2023-03-23T11:23:51;5.20;;;1.98;;
53207;SDS011;39093;52.788;6.940;2023-03-23T11:26:22;7.00;;;1.90;;
53207;SDS011;39093;52.788;6.940;2023-03-23T11:28:53;8.57;;;2.15;;
53207;SDS011;39093;52.788;6.940;2023-03-23T11:31:40;7.40;;;2.28;;
53207;SDS011;39093;52.788;6.940;2023-03-23T11:34:14;8.82;;;2.67;;
53207;SDS011;39093;52.788;6.940;2023-03-23T11:36:43;8.35;;;2.38;;
53207;SDS011;39093;52.788;6.940;2023-03-23T11:39:33;13.65;;;2.15;;
53207;SDS011;39093;52.788;6.940;2023-03-23T11:42:12;11.50;;;2.03;;
53207;SDS011;39093;52.788;6.940;2023-03-23T11:44:53;6.40;;;1.88;;
53207;SDS011;39093;52.788;6.940;2023-03-23T11:52:43;7.80;;;1.80;;
53207;SDS011;39093;52.788;6.940;2023-03-23T11:55:13;11.48;;;2.20;;
53207;SDS011;39093;52.788;6.940;2023-03-23T11:57:46;9.70;;;2.15;;
53207;SDS011;39093;52.788;6.940;2023-03-23T12:00:14;8.35;;;1.85;;
53207;SDS011;39093;52.788;6.940;2023-03-23T12:02:52;9.40;;;2.22;;
53207;SDS011;39093;52.788;6.940;2023-03-23T12:19:42;6.60;;;1.87;;
53207;SDS011;39093;52.788;6.940;2023-03-23T12:22:23;10.90;;;2.22;;
53207;SDS011;39093;52.788;6.940;2023-03-23T12:25:20;10.93;;;2.47;;
53207;SDS011;39093;52.788;6.940;2023-03-23T12:45:17;10.55;;;2.50;;
53207;SDS011;39093;52.788;6.940;2023-03-23T12:58:45;12.52;;;3.25;;
53207;SDS011;39093;52.788;6.940;2023-03-23T13:01:23;10.85;;;2.10;;
53207;SDS011;39093;52.788;6.940;2023-03-23T13:12:05;9.88;;;2.15;;
53207;SDS011;39093;52.788;6.940;2023-03-23T13:14:47;10.70;;;2.40;;
53207;SDS011;39093;52.788;6.940;2023-03-23T13:22:47;7.18;;;1.85;;
53207;SDS011;39093;52.788;6.940;2023-03-23T13:25:30;7.93;;;2.00;;
53207;SDS011;39093;52.788;6.940;2023-03-23T13:31:14;6.68;;;2.10;;
53207;SDS011;39093;52.788;6.940;2023-03-23T13:33:46;9.88;;;2.35;;
53207;SDS011;39093;52.788;6.940;2023-03-23T13:36:15;8.27;;;2.47;;
53207;SDS011;39093;52.788;6.940;2023-03-23T13:38:51;7.75;;;1.98;;
53207;SDS011;39093;52.788;6.940;2023-03-23T13:41:18;10.32;;;2.17;;
53207;SDS011;39093;52.788;6.940;2023-03-23T13:43:46;6.28;;;1.90;;
53207;SDS011;39093;52.788;6.940;2023-03-23T13:46:24;6.07;;;2.03;;
53207;SDS011;39093;52.788;6.940;2023-03-23T13:51:36;10.20;;;2.33;;
53207;SDS011;39093;52.788;6.940;2023-03-23T13:54:41;8.25;;;2.50;;
53207;SDS011;39093;52.788;6.940;2023-03-23T13:57:23;9.48;;;2.40;;
53207;SDS011;39093;52.788;6.940;2023-03-23T13:59:55;9.20;;;2.38;;
53207;SDS011;39093;52.788;6.940;2023-03-23T14:02:39;11.10;;;2.28;;
53207;SDS011;39093;52.788;6.940;2023-03-23T14:05:19;7.47;;;1.70;;
53207;SDS011;39093;52.788;6.940;2023-03-23T14:08:12;7.50;;;1.63;;
53207;SDS011;39093;52.788;6.940;2023-03-23T14:11:10;10.87;;;2.80;;
53207;SDS011;39093;52.788;6.940;2023-03-23T14:13:58;13.43;;;3.05;;
53207;SDS011;39093;52.788;6.940;2023-03-23T14:19:03;10.70;;;3.10;;
53207;SDS011;39093;52.788;6.940;2023-03-23T14:21:54;12.25;;;3.08;;
53207;SDS011;39093;52.788;6.940;2023-03-23T14:26:52;10.57;;;1.88;;
53207;SDS011;39093;52.788;6.940;2023-03-23T14:29:26;8.85;;;2.25;;
53207;SDS011;39093;52.788;6.940;2023-03-23T14:31:56;6.10;;;1.90;;
53207;SDS011;39093;52.788;6.940;2023-03-23T14:34:26;7.18;;;1.63;;
53207;SDS011;39093;52.788;6.940;2023-03-23T14:36:56;12.25;;;2.78;;
53207;SDS011;39093;52.788;6.940;2023-03-23T14:39:27;7.10;;;1.58;;
53207;SDS011;39093;52.788;6.940;2023-03-23T14:41:56;8.00;;;2.25;;
53207;SDS011;39093;52.788;6.940;2023-03-23T14:44:29;9.20;;;2.72;;
53207;SDS011;39093;52.788;6.940;2023-03-23T14:47:06;11.15;;;3.08;;
53207;SDS011;39093;52.788;6.940;2023-03-23T14:49:38;9.07;;;2.47;;
53207;SDS011;39093;52.788;6.940;2023-03-23T14:52:11;9.50;;;2.30;;
53207;SDS011;39093;52.788;6.940;2023-03-23T14:54:38;5.43;;;1.70;;
53207;SDS011;39093;52.788;6.940;2023-03-23T14:59:56;10.57;;;2.35;;
53207;SDS011;39093;52.788;6.940;2023-03-23T15:02:35;10.98;;;2.70;;
53207;SDS011;39093;52.788;6.940;2023-03-23T15:05:06;11.15;;;2.50;;
53207;SDS011;39093;52.788;6.940;2023-03-23T15:07:38;12.98;;;2.40;;
53207;SDS011;39093;52.788;6.940;2023-03-23T15:10:06;8.93;;;2.38;;
53207;SDS011;39093;52.788;6.940;2023-03-23T15:12:33;11.02;;;1.92;;
53207;SDS011;39093;52.788;6.940;2023-03-23T15:15:19;8.88;;;2.53;;
53207;SDS011;39093;52.788;6.940;2023-03-23T15:17:45;9.88;;;2.50;;
53207;SDS011;39093;52.788;6.940;2023-03-23T15:20:26;8.93;;;1.88;;
53207;SDS011;39093;52.788;6.940;2023-03-23T15:22:54;9.25;;;2.20;;
53207;SDS011;39093;52.788;6.940;2023-03-23T15:25:21;10.88;;;2.17;;
53207;SDS011;39093;52.788;6.940;2023-03-23T15:27:58;9.70;;;2.13;;
53207;SDS011;39093;52.788;6.940;2023-03-23T15:30:33;8.35;;;2.72;;
53207;SDS011;39093;52.788;6.940;2023-03-23T15:33:03;16.90;;;2.38;;
53207;SDS011;39093;52.788;6.940;2023-03-23T15:35:38;6.80;;;2.17;;
53207;SDS011;39093;52.788;6.940;2023-03-23T15:38:51;5.40;;;2.38;;
53207;SDS011;39093;52.788;6.940;2023-03-23T15:41:01;7.75;;;2.55;;
53207;SDS011;39093;52.788;6.940;2023-03-23T15:43:35;8.80;;;1.95;;
53207;SDS011;39093;52.788;6.940;2023-03-23T15:46:22;10.15;;;2.47;;
53207;SDS011;39093;52.788;6.940;2023-03-23T15:53:50;11.65;;;2.03;;
53207;SDS011;39093;52.788;6.940;2023-03-23T15:56:16;10.57;;;2.13;;
53207;SDS011;39093;52.788;6.940;2023-03-23T15:58:43;8.32;;;2.00;;
53207;SDS011;39093;52.788;6.940;2023-03-23T16:01:11;11.48;;;2.58;;
53207;SDS011;39093;52.788;6.940;2023-03-23T16:06:17;12.40;;;2.17;;
53207;SDS011;39093;52.788;6.940;2023-03-23T16:08:51;14.20;;;2.83;;
53207;SDS011;39093;52.788;6.940;2023-03-23T16:11:20;9.50;;;2.17;;
53207;SDS011;39093;52.788;6.940;2023-03-23T16:13:48;10.18;;;2.90;;
53207;SDS011;39093;52.788;6.940;2023-03-23T16:16:17;11.35;;;3.90;;
53207;SDS011;39093;52.788;6.940;2023-03-23T16:19:16;9.13;;;2.58;;
53207;SDS011;39093;52.788;6.940;2023-03-23T16:21:45;9.90;;;2.58;;
53207;SDS011;39093;52.788;6.940;2023-03-23T16:24:12;9.18;;;2.88;;
53207;SDS011;39093;52.788;6.940;2023-03-23T16:26:39;9.13;;;1.98;;
53207;SDS011;39093;52.788;6.940;2023-03-23T16:29:10;11.57;;;3.40;;
53207;SDS011;39093;52.788;6.940;2023-03-23T16:31:49;14.73;;;2.40;;
53207;SDS011;39093;52.788;6.940;2023-03-23T16:34:16;11.05;;;2.90;;
53207;SDS011;39093;52.788;6.940;2023-03-23T16:36:43;9.60;;;3.75;;
53207;SDS011;39093;52.788;6.940;2023-03-23T16:39:11;8.98;;;2.58;;
53207;SDS011;39093;52.788;6.940;2023-03-23T16:41:38;14.50;;;3.67;;
53207;SDS011;39093;52.788;6.940;2023-03-23T16:44:06;9.32;;;3.35;;
53207;SDS011;39093;52.788;6.940;2023-03-23T16:46:33;9.10;;;3.33;;
53207;SDS011;39093;52.788;6.940;2023-03-23T16:49:00;14.57;;;3.15;;
53207;SDS011;39093;52.788;6.940;2023-03-23T16:51:28;11.43;;;3.50;;
53207;SDS011;39093;52.788;6.940;2023-03-23T16:53:54;9.40;;;2.53;;
53207;SDS011;39093;52.788;6.940;2023-03-23T16:56:23;7.35;;;2.58;;
53207;SDS011;39093;52.788;6.940;2023-03-23T16:58:51;11.00;;;3.15;;
53207;SDS011;39093;52.788;6.940;2023-03-23T17:01:17;7.43;;;1.88;;
53207;SDS011;39093;52.788;6.940;2023-03-23T17:03:45;6.88;;;1.95;;
53207;SDS011;39093;52.788;6.940;2023-03-23T17:06:12;8.82;;;2.78;;
53207;SDS011;39093;52.788;6.940;2023-03-23T17:08:39;6.10;;;1.80;;
53207;SDS011;39093;52.788;6.940;2023-03-23T17:11:07;6.68;;;1.95;;
53207;SDS011;39093;52.788;6.940;2023-03-23T17:13:36;8.93;;;2.28;;
53207;SDS011;39093;52.788;6.940;2023-03-23T17:16:03;6.03;;;1.90;;
53207;SDS011;39093;52.788;6.940;2023-03-23T17:18:30;4.30;;;1.80;;